sensor_id;sensor_type;location;lat;lon;timestamp;temperature;humidity
13721;DHT22;6932;51.438;5.470;2023-04-01T00:00:33;17.20;90.70
13721;DHT22;6932;51.438;5.470;2023-04-01T00:02:59;17.10;90.70
13721;DHT22;6932;51.438;5.470;2023-04-01T00:05:26;17.10;90.70
13721;DHT22;6932;51.438;5.470;2023-04-01T00:07:51;17.10;90.70
13721;DHT22;6932;51.438;5.470;2023-04-01T00:10:17;17.10;90.70
13721;DHT22;6932;51.438;5.470;2023-04-01T00:12:44;17.10;90.70
13721;DHT22;6932;51.438;5.470;2023-04-01T00:15:11;17.10;90.80
13721;DHT22;6932;51.438;5.470;2023-04-01T00:17:49;17.10;90.80
13721;DHT22;6932;51.438;5.470;2023-04-01T00:20:15;17.10;90.80
13721;DHT22;6932;51.438;5.470;2023-04-01T00:22:41;17.10;90.80
13721;DHT22;6932;51.438;5.470;2023-04-01T00:25:07;17.10;90.80
13721;DHT22;6932;51.438;5.470;2023-04-01T00:27:33;17.10;90.80
13721;DHT22;6932;51.438;5.470;2023-04-01T00:29:59;17.10;90.80
13721;DHT22;6932;51.438;5.470;2023-04-01T00:32:26;17.10;90.80
13721;DHT22;6932;51.438;5.470;2023-04-01T00:34:52;17.10;90.80
13721;DHT22;6932;51.438;5.470;2023-04-01T00:37:19;17.10;90.80
13721;DHT22;6932;51.438;5.470;2023-04-01T00:39:46;17.10;90.80
13721;DHT22;6932;51.438;5.470;2023-04-01T00:42:12;17.10;90.80
13721;DHT22;6932;51.438;5.470;2023-04-01T00:44:39;17.10;90.80
13721;DHT22;6932;51.438;5.470;2023-04-01T00:47:06;17.10;90.80
13721;DHT22;6932;51.438;5.470;2023-04-01T00:49:41;17.10;90.80
13721;DHT22;6932;51.438;5.470;2023-04-01T00:52:12;17.10;90.80
13721;DHT22;6932;51.438;5.470;2023-04-01T00:54:43;17.10;90.80
13721;DHT22;6932;51.438;5.470;2023-04-01T00:59:54;17.10;90.90
13721;DHT22;6932;51.438;5.470;2023-04-01T01:02:21;17.10;90.80
13721;DHT22;6932;51.438;5.470;2023-04-01T01:04:48;17.10;90.90
13721;DHT22;6932;51.438;5.470;2023-04-01T01:10:17;17.10;90.90
13721;DHT22;6932;51.438;5.470;2023-04-01T01:15:40;17.10;91.00
13721;DHT22;6932;51.438;5.470;2023-04-01T01:27:11;17.00;91.10
13721;DHT22;6932;51.438;5.470;2023-04-01T01:30:12;17.00;91.00
13721;DHT22;6932;51.438;5.470;2023-04-01T01:35:38;17.00;91.10
13721;DHT22;6932;51.438;5.470;2023-04-01T01:38:13;17.00;91.10
13721;DHT22;6932;51.438;5.470;2023-04-01T01:40:45;17.00;91.20
13721;DHT22;6932;51.438;5.470;2023-04-01T01:43:16;17.00;91.20
13721;DHT22;6932;51.438;5.470;2023-04-01T01:46:01;17.00;91.30
13721;DHT22;6932;51.438;5.470;2023-04-01T01:48:34;17.00;91.30
13721;DHT22;6932;51.438;5.470;2023-04-01T01:51:01;17.00;91.30
13721;DHT22;6932;51.438;5.470;2023-04-01T01:53:27;17.00;91.30
13721;DHT22;6932;51.438;5.470;2023-04-01T01:55:53;17.00;91.30
13721;DHT22;6932;51.438;5.470;2023-04-01T02:01:03;16.90;91.40
13721;DHT22;6932;51.438;5.470;2023-04-01T02:03:34;17.00;91.40
13721;DHT22;6932;51.438;5.470;2023-04-01T02:06:09;16.90;91.40
13721;DHT22;6932;51.438;5.470;2023-04-01T02:08:42;17.00;91.40
13721;DHT22;6932;51.438;5.470;2023-04-01T02:11:14;16.90;91.40
13721;DHT22;6932;51.438;5.470;2023-04-01T02:13:53;17.00;91.40
13721;DHT22;6932;51.438;5.470;2023-04-01T02:16:31;16.90;91.40
13721;DHT22;6932;51.438;5.470;2023-04-01T02:19:01;17.00;91.50
13721;DHT22;6932;51.438;5.470;2023-04-01T02:21:33;16.90;91.40
13721;DHT22;6932;51.438;5.470;2023-04-01T02:24:02;16.90;91.50
13721;DHT22;6932;51.438;5.470;2023-04-01T02:26:31;16.90;91.50
13721;DHT22;6932;51.438;5.470;2023-04-01T02:28:58;16.90;91.50
13721;DHT22;6932;51.438;5.470;2023-04-01T02:31:25;16.90;91.50
13721;DHT22;6932;51.438;5.470;2023-04-01T02:33:51;16.90;91.50
13721;DHT22;6932;51.438;5.470;2023-04-01T02:36:18;16.90;91.50
13721;DHT22;6932;51.438;5.470;2023-04-01T02:38:45;16.90;91.50
13721;DHT22;6932;51.438;5.470;2023-04-01T02:41:12;16.90;91.50
13721;DHT22;6932;51.438;5.470;2023-04-01T02:43:38;16.90;91.50
13721;DHT22;6932;51.438;5.470;2023-04-01T02:46:04;16.90;91.50
13721;DHT22;6932;51.438;5.470;2023-04-01T02:48:30;16.90;91.50
13721;DHT22;6932;51.438;5.470;2023-04-01T02:50:56;16.90;91.40
13721;DHT22;6932;51.438;5.470;2023-04-01T02:53:22;16.90;91.40
13721;DHT22;6932;51.438;5.470;2023-04-01T02:55:48;16.90;91.40
13721;DHT22;6932;51.438;5.470;2023-04-01T02:58:16;16.90;91.40
13721;DHT22;6932;51.438;5.470;2023-04-01T03:00:42;16.90;91.40
13721;DHT22;6932;51.438;5.470;2023-04-01T03:03:09;16.90;91.40
13721;DHT22;6932;51.438;5.470;2023-04-01T03:05:35;16.90;91.40
13721;DHT22;6932;51.438;5.470;2023-04-01T03:08:01;16.80;91.40
13721;DHT22;6932;51.438;5.470;2023-04-01T03:10:28;16.90;91.40
13721;DHT22;6932;51.438;5.470;2023-04-01T03:12:53;16.90;91.40
13721;DHT22;6932;51.438;5.470;2023-04-01T03:15:19;16.80;91.40
13721;DHT22;6932;51.438;5.470;2023-04-01T03:17:45;16.90;91.50
13721;DHT22;6932;51.438;5.470;2023-04-01T03:20:12;16.80;91.50
13721;DHT22;6932;51.438;5.470;2023-04-01T03:22:39;16.80;91.50
13721;DHT22;6932;51.438;5.470;2023-04-01T03:25:05;16.80;91.50
13721;DHT22;6932;51.438;5.470;2023-04-01T03:30:42;16.80;91.60
13721;DHT22;6932;51.438;5.470;2023-04-01T03:33:07;16.80;91.50
13721;DHT22;6932;51.438;5.470;2023-04-01T03:35:33;16.80;91.50
13721;DHT22;6932;51.438;5.470;2023-04-01T03:38:01;16.80;91.50
13721;DHT22;6932;51.438;5.470;2023-04-01T03:40:27;16.80;91.60
13721;DHT22;6932;51.438;5.470;2023-04-01T03:43:02;16.80;91.60
13721;DHT22;6932;51.438;5.470;2023-04-01T03:45:28;16.80;91.60
13721;DHT22;6932;51.438;5.470;2023-04-01T03:47:54;16.80;91.60
13721;DHT22;6932;51.438;5.470;2023-04-01T03:50:20;16.80;91.70
13721;DHT22;6932;51.438;5.470;2023-04-01T03:52:46;16.80;91.70
13721;DHT22;6932;51.438;5.470;2023-04-01T03:55:11;16.80;91.70
13721;DHT22;6932;51.438;5.470;2023-04-01T03:57:37;16.80;91.70
13721;DHT22;6932;51.438;5.470;2023-04-01T04:00:06;16.70;91.70
13721;DHT22;6932;51.438;5.470;2023-04-01T04:02:34;16.70;91.70
13721;DHT22;6932;51.438;5.470;2023-04-01T04:05:01;16.70;91.70
13721;DHT22;6932;51.438;5.470;2023-04-01T04:07:27;16.70;91.70
13721;DHT22;6932;51.438;5.470;2023-04-01T04:09:52;16.70;91.70
13721;DHT22;6932;51.438;5.470;2023-04-01T04:12:18;16.70;91.70
13721;DHT22;6932;51.438;5.470;2023-04-01T04:14:44;16.70;91.80
13721;DHT22;6932;51.438;5.470;2023-04-01T04:17:11;16.70;91.80
13721;DHT22;6932;51.438;5.470;2023-04-01T04:19:41;16.70;91.80
13721;DHT22;6932;51.438;5.470;2023-04-01T04:22:07;16.70;91.80
13721;DHT22;6932;51.438;5.470;2023-04-01T04:24:37;16.70;91.80
13721;DHT22;6932;51.438;5.470;2023-04-01T04:27:03;16.70;91.80
13721;DHT22;6932;51.438;5.470;2023-04-01T04:29:29;16.70;91.80
13721;DHT22;6932;51.438;5.470;2023-04-01T04:31:55;16.70;91.80
13721;DHT22;6932;51.438;5.470;2023-04-01T04:34:21;16.70;91.80
13721;DHT22;6932;51.438;5.470;2023-04-01T04:36:48;16.70;91.80
13721;DHT22;6932;51.438;5.470;2023-04-01T04:39:14;16.70;91.80
13721;DHT22;6932;51.438;5.470;2023-04-01T04:41:40;16.60;91.80
13721;DHT22;6932;51.438;5.470;2023-04-01T04:44:06;16.70;91.80
13721;DHT22;6932;51.438;5.470;2023-04-01T04:46:32;16.60;91.80
13721;DHT22;6932;51.438;5.470;2023-04-01T04:48:58;16.60;91.80
13721;DHT22;6932;51.438;5.470;2023-04-01T04:51:24;16.60;91.80
13721;DHT22;6932;51.438;5.470;2023-04-01T04:53:50;16.60;91.80
13721;DHT22;6932;51.438;5.470;2023-04-01T04:56:22;16.60;91.80
13721;DHT22;6932;51.438;5.470;2023-04-01T04:58:50;16.60;91.80
13721;DHT22;6932;51.438;5.470;2023-04-01T05:01:16;16.60;91.80
13721;DHT22;6932;51.438;5.470;2023-04-01T05:03:43;16.60;91.80
13721;DHT22;6932;51.438;5.470;2023-04-01T05:06:11;16.60;91.80
13721;DHT22;6932;51.438;5.470;2023-04-01T05:08:40;16.60;91.80
13721;DHT22;6932;51.438;5.470;2023-04-01T05:11:11;16.60;91.80
13721;DHT22;6932;51.438;5.470;2023-04-01T05:13:39;16.60;91.80
13721;DHT22;6932;51.438;5.470;2023-04-01T05:16:09;16.60;91.80
13721;DHT22;6932;51.438;5.470;2023-04-01T05:18:40;16.60;91.80
13721;DHT22;6932;51.438;5.470;2023-04-01T05:21:08;16.60;91.80
13721;DHT22;6932;51.438;5.470;2023-04-01T05:23:35;16.50;91.80
13721;DHT22;6932;51.438;5.470;2023-04-01T05:26:13;16.60;91.80
13721;DHT22;6932;51.438;5.470;2023-04-01T05:28:40;16.60;91.80
13721;DHT22;6932;51.438;5.470;2023-04-01T05:31:06;16.50;91.80
13721;DHT22;6932;51.438;5.470;2023-04-01T05:33:33;16.50;91.80
13721;DHT22;6932;51.438;5.470;2023-04-01T05:36:07;16.50;91.80
13721;DHT22;6932;51.438;5.470;2023-04-01T05:38:34;16.50;91.80
13721;DHT22;6932;51.438;5.470;2023-04-01T05:41:02;16.50;91.80
13721;DHT22;6932;51.438;5.470;2023-04-01T05:43:28;16.50;91.80
13721;DHT22;6932;51.438;5.470;2023-04-01T05:45:55;16.50;91.80
13721;DHT22;6932;51.438;5.470;2023-04-01T05:48:21;16.50;91.80
13721;DHT22;6932;51.438;5.470;2023-04-01T05:50:47;16.50;91.80
13721;DHT22;6932;51.438;5.470;2023-04-01T05:53:12;16.50;91.80
13721;DHT22;6932;51.438;5.470;2023-04-01T05:55:38;16.50;91.80
13721;DHT22;6932;51.438;5.470;2023-04-01T06:01:44;16.50;91.90
13721;DHT22;6932;51.438;5.470;2023-04-01T06:04:17;16.50;91.80
13721;DHT22;6932;51.438;5.470;2023-04-01T06:06:43;16.50;91.80
13721;DHT22;6932;51.438;5.470;2023-04-01T06:09:27;16.50;91.80
13721;DHT22;6932;51.438;5.470;2023-04-01T06:15:32;16.40;91.90
13721;DHT22;6932;51.438;5.470;2023-04-01T06:21:50;16.40;91.90
13721;DHT22;6932;51.438;5.470;2023-04-01T06:32:05;16.40;92.00
13721;DHT22;6932;51.438;5.470;2023-04-01T06:58:42;16.40;92.30
13721;DHT22;6932;51.438;5.470;2023-04-01T07:01:21;16.40;92.30
13721;DHT22;6932;51.438;5.470;2023-04-01T07:04:20;16.40;92.30
13721;DHT22;6932;51.438;5.470;2023-04-01T07:07:03;16.40;92.50
13721;DHT22;6932;51.438;5.470;2023-04-01T07:09:40;16.40;92.40
13721;DHT22;6932;51.438;5.470;2023-04-01T07:15:41;16.40;92.50
13721;DHT22;6932;51.438;5.470;2023-04-01T07:18:19;16.50;92.50
13721;DHT22;6932;51.438;5.470;2023-04-01T07:20:53;16.50;92.50
13721;DHT22;6932;51.438;5.470;2023-04-01T07:23:37;16.50;92.60
13721;DHT22;6932;51.438;5.470;2023-04-01T07:26:29;16.50;92.60
13721;DHT22;6932;51.438;5.470;2023-04-01T07:28:56;16.60;92.60
13721;DHT22;6932;51.438;5.470;2023-04-01T08:04:51;16.80;92.70
13721;DHT22;6932;51.438;5.470;2023-04-01T08:07:36;16.80;92.70
13721;DHT22;6932;51.438;5.470;2023-04-01T08:13:15;16.80;92.60
13721;DHT22;6932;51.438;5.470;2023-04-01T08:22:15;16.90;92.60
13721;DHT22;6932;51.438;5.470;2023-04-01T08:24:46;16.90;92.50
13721;DHT22;6932;51.438;5.470;2023-04-01T08:27:21;16.90;92.60
13721;DHT22;6932;51.438;5.470;2023-04-01T08:29:58;16.90;92.60
13721;DHT22;6932;51.438;5.470;2023-04-01T08:32:38;16.90;92.70
13721;DHT22;6932;51.438;5.470;2023-04-01T08:35:29;16.90;92.70
13721;DHT22;6932;51.438;5.470;2023-04-01T08:38:01;17.00;92.80
13721;DHT22;6932;51.438;5.470;2023-04-01T08:43:39;17.10;92.80
13721;DHT22;6932;51.438;5.470;2023-04-01T08:52:19;17.20;92.80
13721;DHT22;6932;51.438;5.470;2023-04-01T08:55:22;17.30;92.70
13721;DHT22;6932;51.438;5.470;2023-04-01T08:58:20;17.30;92.70
13721;DHT22;6932;51.438;5.470;2023-04-01T09:25:54;17.50;92.00
13721;DHT22;6932;51.438;5.470;2023-04-01T09:29:11;17.50;92.00
13721;DHT22;6932;51.438;5.470;2023-04-01T09:34:51;17.60;92.10
13721;DHT22;6932;51.438;5.470;2023-04-01T09:37:51;17.60;92.20
13721;DHT22;6932;51.438;5.470;2023-04-01T09:46:19;17.60;92.20
13721;DHT22;6932;51.438;5.470;2023-04-01T09:52:20;17.70;92.10
13721;DHT22;6932;51.438;5.470;2023-04-01T10:23:18;17.60;91.60
13721;DHT22;6932;51.438;5.470;2023-04-01T11:00:07;17.50;91.40
13721;DHT22;6932;51.438;5.470;2023-04-01T11:09:41;17.40;91.50
13721;DHT22;6932;51.438;5.470;2023-04-01T11:18:02;17.40;91.50
13721;DHT22;6932;51.438;5.470;2023-04-01T11:24:50;17.30;91.30
13721;DHT22;6932;51.438;5.470;2023-04-01T11:41:45;16.60;92.30
13721;DHT22;6932;51.438;5.470;2023-04-01T11:44:26;16.50;92.60
13721;DHT22;6932;51.438;5.470;2023-04-01T11:50:43;16.50;93.10
13721;DHT22;6932;51.438;5.470;2023-04-01T11:53:14;16.50;93.20
13721;DHT22;6932;51.438;5.470;2023-04-01T12:04:47;16.90;93.20
13721;DHT22;6932;51.438;5.470;2023-04-01T12:31:04;17.30;92.90
13721;DHT22;6932;51.438;5.470;2023-04-01T12:37:10;17.30;92.90
13721;DHT22;6932;51.438;5.470;2023-04-01T12:40:06;17.40;92.90
13721;DHT22;6932;51.438;5.470;2023-04-01T13:02:37;17.40;92.70
13721;DHT22;6932;51.438;5.470;2023-04-01T13:20:54;17.50;92.60
13721;DHT22;6932;51.438;5.470;2023-04-01T13:44:09;17.50;92.60
13721;DHT22;6932;51.438;5.470;2023-04-01T13:46:47;17.50;92.60
13721;DHT22;6932;51.438;5.470;2023-04-01T14:22:21;17.50;92.70
13721;DHT22;6932;51.438;5.470;2023-04-01T14:25:30;17.50;92.70
13721;DHT22;6932;51.438;5.470;2023-04-01T14:54:46;17.40;92.80
13721;DHT22;6932;51.438;5.470;2023-04-01T14:57:24;17.40;92.80
13721;DHT22;6932;51.438;5.470;2023-04-01T15:00:13;17.40;92.90
13721;DHT22;6932;51.438;5.470;2023-04-01T15:02:49;17.30;92.90
13721;DHT22;6932;51.438;5.470;2023-04-01T15:11:28;17.40;93.00
13721;DHT22;6932;51.438;5.470;2023-04-01T15:37:30;17.30;93.20
13721;DHT22;6932;51.438;5.470;2023-04-01T15:49:41;17.20;93.20
13721;DHT22;6932;51.438;5.470;2023-04-01T15:57:51;17.30;93.20
13721;DHT22;6932;51.438;5.470;2023-04-01T16:01:03;17.30;93.20
13721;DHT22;6932;51.438;5.470;2023-04-01T16:04:01;17.30;93.20
13721;DHT22;6932;51.438;5.470;2023-04-01T16:26:37;17.20;93.10
13721;DHT22;6932;51.438;5.470;2023-04-01T16:34:39;17.10;93.10
13721;DHT22;6932;51.438;5.470;2023-04-01T16:37:34;17.20;93.10
13721;DHT22;6932;51.438;5.470;2023-04-01T17:31:15;17.00;93.40
13721;DHT22;6932;51.438;5.470;2023-04-01T17:33:55;17.00;93.50
13721;DHT22;6932;51.438;5.470;2023-04-01T17:40:28;17.10;93.60
13721;DHT22;6932;51.438;5.470;2023-04-01T22:32:25;15.70;91.60
13721;DHT22;6932;51.438;5.470;2023-04-01T22:49:37;15.60;91.40
13721;DHT22;6932;51.438;5.470;2023-04-01T22:52:31;15.60;91.40
13721;DHT22;6932;51.438;5.470;2023-04-01T22:55:25;15.60;91.40
13721;DHT22;6932;51.438;5.470;2023-04-01T22:58:02;15.60;91.40
13721;DHT22;6932;51.438;5.470;2023-04-01T23:00:44;15.60;91.30
13721;DHT22;6932;51.438;5.470;2023-04-01T23:03:31;15.60;91.30
13721;DHT22;6932;51.438;5.470;2023-04-01T23:06:00;15.50;91.20
13721;DHT22;6932;51.438;5.470;2023-04-01T23:15:16;15.50;91.10
13721;DHT22;6932;51.438;5.470;2023-04-01T23:27:10;15.40;90.90
13721;DHT22;6932;51.438;5.470;2023-04-01T23:29:40;15.40;90.90
13721;DHT22;6932;51.438;5.470;2023-04-01T23:32:34;15.40;90.90
13721;DHT22;6932;51.438;5.470;2023-04-01T23:46:12;15.30;90.80
13721;DHT22;6932;51.438;5.470;2023-04-01T23:48:43;15.30;91.00
13721;DHT22;6932;51.438;5.470;2023-04-01T23:54:53;15.20;90.70
13721;DHT22;6932;51.438;5.470;2023-04-01T23:57:30;15.20;90.70
